Flight Track Log - Related Links

Times and Time Zones

All times are in EST time to prevent confusion due to time zone crossing. See the N8147X flight status page for this flight to view local times or setup timezone preferences in your user account.

Time Position Orientation Groundspeed Altitude Reporting Facility
EST Latitude Longitude Course Direction KTS MPH feet Rate Location/Type
Sat 03:18:20 PM 43.4833 -71.4667 349° North 101 116 4,500  Level KA90
Sat 03:19:20 PM 43.4667 -71.4833 216° Southwest 102 117 4,400 -50 Descending KA90
Sat 03:20:20 PM 43.4333 -71.5167 216° Southwest 96 110 4,400 100 Level KA90
Sat 03:21:20 PM 43.4167 -71.5333 216° Southwest 96 110 4,600 446 Climbing KA90
Sat 03:22:21 PM 43.4000 -71.5500 216° Southwest 84 97 5,300 645 Climbing KA90
Sat 03:23:00 PM -21.8556 -60.6601 349° North  Level Estimated
Sat 03:23:21 PM 43.3833 -71.5667 216° Southwest 66 76 5,900  Level KA90
Sat 03:24:21 PM 43.3833 -71.5833 270° West 64 74 6,500 211 Climbing KA90
Sat 03:25:15 PM 43.3500 -71.6000 200° South 92 106 6,300 -53 Descending KA90
Sat 03:26:15 PM 43.3333 -71.6333 236° Southwest 93 107 6,400 100 Climbing KA90
Sat 03:27:15 PM 43.3167 -71.6500 216° Southwest 84 97 6,500 95 Climbing KA90
Sat 03:28:21 PM 43.3000 -71.6667 216° Southwest 86 99 6,600 62 Climbing KA90
Sat 03:28:52 PM 43.2853 -71.6767 206° Southwest 86 99 6,600 -67 Level Boston Center
Sat 03:29:51 PM 43.2647 -71.6978 217° Southwest 92 106 6,500 -49 Descending Boston Center
Sat 03:30:54 PM 43.2439 -71.7183 216° Southwest 93 107 6,500 -48 Level Boston Center
Sat 03:31:55 PM 43.2228 -71.7372 213° Southwest 92 106 6,400  Descending Boston Center
Sat 03:32:54 PM 43.2022 -71.7589 218° Southwest 87 100 6,500  Climbing Boston Center
Sat 03:33:54 PM 43.1825 -71.7783 216° Southwest 86 99 6,400 -298 Descending Boston Center
Sat 03:34:55 PM 43.1614 -71.7972 213° Southwest 90 104 5,900 -484 Descending Boston Center
Sat 03:35:58 PM 43.1400 -71.8192 217° Southwest 95 109 5,400 -484 Descending Boston Center
Sat 03:36:59 PM 43.1172 -71.8417 216° Southwest 100 115 4,900 -393 Descending Boston Center
Sat 03:38:00 PM 43.0922 -71.8650 214° Southwest 102 117 4,600 -149 Descending Boston Center
Sat 03:39:00 PM 43.0689 -71.8883 216° Southwest 104 120 4,600  Level Boston Center
Sat 03:40:02 PM 43.0469 -71.9100 216° Southwest 101 116 4,600  Level Boston Center
Sat 03:41:03 PM 43.0239 -71.9317 214° Southwest 102 117 4,600 -49 Level Boston Center
Sat 03:42:04 PM 42.9994 -71.9556 216° Southwest 101 116 4,500 -98 Descending Boston Center
Sat 03:43:05 PM 42.9753 -71.9783 215° Southwest 106 122 4,400  Descending Boston Center
Sat 03:44:06 PM 42.9536 -72.0000 216° Southwest 99 114 4,500 99 Climbing Boston Center
Sat 03:45:06 PM 42.9308 -72.0225 216° Southwest 101 116 4,600 99 Climbing Boston Center
Sat 03:46:07 PM 42.9083 -72.0433 214° Southwest 99 114 4,700 -98 Climbing Boston Center
Sat 03:47:08 PM 42.8847 -72.0672 217° Southwest 99 114 4,400 -197 Descending Boston Center
Sat 03:48:09 PM 42.8631 -72.0878 215° Southwest 95 109 4,300 -149 Descending Boston Center
Sat 03:49:09 PM 42.8408 -72.1092 215° Southwest 98 113 4,100 -250 Descending Boston Center
Sat 03:50:09 PM 42.8181 -72.1311 215° Southwest 100 115 3,800 -246 Descending Boston Center
Sat 03:51:11 PM 42.7939 -72.1544 215° Southwest 99 114 3,600 -96 Descending Boston Center
Sat 03:52:14 PM 42.7722 -72.1747 214° Southwest 96 110 3,600 98 Level Boston Center
Sat 03:53:13 PM 42.7500 -72.1967 216° Southwest 99 114 3,800 50 Climbing Boston Center
Sat 03:54:15 PM 42.7267 -72.2192 215° Southwest 103 119 3,700 -49 Descending Boston Center
Sat 03:55:16 PM 42.7008 -72.2431 214° Southwest 104 120 3,700  Level Boston Center
Sat 03:56:16 PM 42.6794 -72.2625 214° Southwest 95 109 3,700  Level Boston Center
Sat 03:57:19 PM 42.6578 -72.2858 218° Southwest 99 114 3,700 -48 Level Boston Center
Sat 03:58:20 PM 42.6353 -72.3072 215° Southwest 99 114 3,600 -99 Descending Boston Center
Sat 03:59:20 PM 42.6125 -72.3281 214° Southwest 99 114 3,500 -50 Descending Boston Center
Sat 04:00:21 PM 42.5900 -72.3489 214° Southwest 98 113 3,500  Level Boston Center
Sat 04:01:21 PM 42.5678 -72.3708 216° Southwest 98 113 3,500  Level Boston Center
Sat 04:01:42 PM 42.5567 -72.3814 215° Southwest 97 112 3,500  Level Boston Center
Sat 04:02:23 PM 42.5450 -72.3925 215° Southwest 100 115 3,500 321 Level Boston Center
Sat 04:02:38 PM 42.5358 -72.4000 211° Southwest 97 112 3,800 500 Climbing Boston Center
Sat 04:03:23 PM 42.5256 -72.4100 216° Southwest 93 107 4,000 200 Climbing Boston Center
Sat 04:03:38 PM 42.5175 -72.4169 212° Southwest 86 99 4,000  Level Boston Center
Sat 04:04:24 PM 42.5044 -72.4308 218° Southwest 91 105 4,000  Level Boston Center
Sat 04:04:39 PM 42.4958 -72.4383 213° Southwest 93 107 4,000 98 Level Boston Center
Sat 04:05:25 PM 42.4831 -72.4489 211° Southwest 91 105 4,100 90 Climbing Boston Center
Sat 04:05:46 PM 42.4731 -72.4564 209° Southwest 92 106 4,100  Level Boston Center
Sat 04:06:26 PM 42.4608 -72.4664 211° Southwest 92 106 4,100 98 Level Boston Center
Sat 04:06:47 PM 42.4475 -72.4764 209° Southwest 91 105 4,200 95 Climbing Boston Center
Sat 04:07:29 PM 42.4389 -72.4850 216° Southwest 92 106 4,200 100 Level Boston Center
Sat 04:07:47 PM 42.4267 -72.4950 211° Southwest 96 110 4,300  Climbing Boston Center
Sat 04:08:30 PM 42.4117 -72.5067 210° Southwest 93 107 4,200 -218 Descending Boston Center
Sat 04:08:42 PM 42.4067 -72.5083 194° South 97 112 4,100 -100 Descending Boston Center
Sat 04:09:30 PM 42.3878 -72.5269 216° Southwest 97 112 4,100 -100 Level Boston Center
Sat 04:09:42 PM 42.3808 -72.5308 202° Southwest 101 116 4,000 -100 Descending Boston Center
Sat 04:10:30 PM 42.3650 -72.5469 217° Southwest 98 113 4,000  Level Boston Center
Sat 04:10:44 PM 42.3578 -72.5489 191° South 97 112 4,000  Level Boston Center
Sat 04:11:32 PM 42.3425 -72.5647 217° Southwest 96 110 4,000 -91 Level Boston Center
Sat 04:11:50 PM 42.3342 -72.5694 203° Southwest 93 107 3,900 200 Descending Boston Center
Sat 04:12:32 PM 42.3183 -72.5839 214° Southwest 92 106 4,200 333 Climbing Boston Center
Sat 04:12:44 PM 42.3139 -72.5856 195° South 92 106 4,200 689 Level Boston Center
Sat 04:13:33 PM 42.3006 -72.6011 221° Southwest 77 89 4,900 787 Climbing Boston Center
Sat 04:13:45 PM 42.2975 -72.6028 202° Southwest 54 62 5,000 658 Climbing Boston Center
Sat 04:14:46 PM 42.2861 -72.6161 221° Southwest 59 68 5,700 595 Climbing Boston Center
Sat 04:15:36 PM 42.2731 -72.6183 187° South 62 71 6,100 381 Climbing Boston Center
Sat 04:15:49 PM 42.2694 -72.6247 233° Southwest 71 82 6,100 -82 Level Boston Center
Sat 04:16:49 PM 42.2458 -72.6453 213° Southwest 104 120 6,000  Descending Boston Center
Sat 04:17:38 PM 42.2275 -72.6594 210° Southwest 99 114 6,100 98 Climbing Boston Center
Sat 04:17:50 PM 42.2231 -72.6631 211° Southwest 97 112 6,100  Level Boston Center
Sat 04:18:39 PM 42.2044 -72.6786 212° Southwest 98 113 6,100  Level Boston Center
Sat 04:18:51 PM 42.1994 -72.6836 217° Southwest 96 110 6,100  Level Boston Center
Sat 04:19:40 PM 42.1814 -72.6978 210° Southwest 98 113 6,100  Level Boston Center
Sat 04:19:46 PM 42.1792 -72.6994 209° Southwest 96 110 6,100 -200 Level Boston Center
Sat 04:20:40 PM 42.1589 -72.7178 214° Southwest 98 113 5,900 -200 Descending Boston Center
Sat 04:20:46 PM 42.1575 -72.7208 238° Southwest 101 116 5,900 200 Level Boston Center
Sat 04:21:40 PM 42.1453 -72.7481 239° Southwest 92 106 6,100 179 Climbing Boston Center
Sat 04:21:53 PM 42.1419 -72.7558 240° Southwest 89 102 6,100  Level Boston Center
Sat 04:22:47 PM 42.1300 -72.7833 240° Southwest 96 110 6,100 55 Level Boston Center
Sat 04:23:43 PM 42.1181 -72.8114 240° Southwest 96 110 6,200 88 Climbing Boston Center
Sat 04:23:55 PM 42.1147 -72.8156 223° Southwest 97 112 6,200  Level Boston Center
Sat 04:24:44 PM 42.1044 -72.8428 243° Southwest 98 113 6,200  Level Boston Center
Sat 04:25:08 PM 42.0981 -72.8558 237° Southwest 97 112 6,200  Level Boston Center
Sat 04:25:47 PM 42.0906 -72.8733 240° Southwest 96 110 6,200  Level Boston Center
Sat 04:25:56 PM 42.0867 -72.8806 234° Southwest 96 110 6,200  Level Boston Center
Sat 04:26:47 PM 42.0769 -72.9036 240° Southwest 95 109 6,200  Level Boston Center
Sat 04:27:03 PM 42.0736 -72.9136 246° West 95 109 6,200  Level Boston Center
Sat 04:27:48 PM 42.0633 -72.9364 239° Southwest 92 106 6,200 109 Level Boston Center
Sat 04:27:58 PM 42.0614 -72.9411 241° Southwest 93 107 6,300  Climbing Boston Center
Sat 04:28:49 PM 42.0500 -72.9661 238° Southwest 93 107 6,200 -182 Descending Boston Center
Sat 04:29:04 PM 42.0464 -72.9733 236° Southwest 93 107 6,100 -194 Descending Boston Center
Sat 04:29:51 PM 42.0367 -72.9967 241° Southwest 95 109 6,000 -240 Descending Boston Center
Sat 04:29:54 PM 42.0342 -73.0006 229° Southwest 95 109 5,900 300 Descending Boston Center
Sat 04:30:51 PM 42.0239 -73.0253 241° Southwest 89 102 6,300 411 Climbing Boston Center
Sat 04:31:07 PM 42.0161 -73.0258 183° South 87 100 6,400 295 Climbing Boston Center
Sat 04:31:52 PM 42.0031 -73.0372 213° Southwest 84 97 6,600 111 Climbing Boston Center
Sat 04:32:01 PM 41.9958 -73.0417 205° Southwest 89 102 6,500 -80 Descending Boston Center
Sat 04:33:07 PM 41.9728 -73.0592 209° Southwest 94 108 6,500 54 Level Boston Center
Sat 04:33:53 PM 41.9558 -73.0719 209° Southwest 92 106 6,600  Climbing Boston Center
Sat 04:34:08 PM 41.9497 -73.0769 211° Southwest 93 107 6,500  Descending Boston Center
Sat 04:34:54 PM 41.9325 -73.0878 205° Southwest 94 108 6,600  Climbing Boston Center
Sat 04:35:09 PM 41.9253 -73.0911 199° South 94 108 6,500  Descending Boston Center
Sat 04:35:55 PM 41.9094 -73.1044 212° Southwest 94 108 6,600  Climbing Boston Center
Sat 04:36:10 PM 41.9022 -73.1086 203° Southwest 94 108 6,500  Descending Boston Center
Sat 04:36:56 PM 41.8867 -73.1206 210° Southwest 93 107 6,600  Climbing Boston Center
Sat 04:37:05 PM 41.8817 -73.1244 210° Southwest 93 107 6,500  Descending Boston Center
Sat 04:37:57 PM 41.8628 -73.1378 208° Southwest 90 104 6,600  Climbing Boston Center
Sat 04:38:06 PM 41.8586 -73.1419 217° Southwest 91 105 6,500  Descending Boston Center
Sat 04:38:57 PM 41.8397 -73.1533 204° Southwest 92 106 6,600  Climbing Boston Center
Sat 04:39:06 PM 41.8361 -73.1569 217° Southwest 92 106 6,500  Descending Boston Center
Sat 04:39:59 PM 41.8172 -73.1694 206° Southwest 92 106 6,600  Climbing Boston Center
Sat 04:40:02 PM 41.8156 -73.1725 234° Southwest 90 104 6,500 -100 Descending Boston Center
Sat 04:40:59 PM 41.7958 -73.1858 207° Southwest 90 104 6,500 -51 Level Boston Center
Sat 04:42:00 PM 41.7717 -73.2031 208° Southwest 91 105 6,400  Descending Boston Center
Sat 04:43:01 PM 41.7489 -73.2189 207° Southwest 93 107 6,500 48 Climbing Boston Center
Sat 04:44:04 PM 41.7256 -73.2347 207° Southwest 95 109 6,500  Level Boston Center
Sat 04:45:04 PM 41.7039 -73.2506 209° Southwest 91 105 6,500  Level Boston Center
Sat 04:46:05 PM 41.6822 -73.2658 208° Southwest 88 101 6,500  Level Boston Center
Sat 04:47:05 PM 41.6575 -73.2828 207° Southwest 91 105 6,500  Level Boston Center
Sat 04:48:08 PM 41.6339 -73.2986 207° Southwest 95 109 6,500 -49 Level Boston Center
Sat 04:49:08 PM 41.6117 -73.3147 208° Southwest 91 105 6,400 -250 Descending Boston Center
Sat 04:50:08 PM 41.5886 -73.3303 207° Southwest 92 106 6,000 -496 Descending Boston Center
Sat 04:51:09 PM 41.5656 -73.3464 208° Southwest 94 108 5,400 -541 Descending Boston Center
Sat 04:52:10 PM 41.5397 -73.3647 208° Southwest 97 112 4,900 -397 Descending Boston Center
Sat 04:53:10 PM 41.5181 -73.3794 207° Southwest 96 110 4,600 -300 Descending Boston Center
Sat 04:55:00 PM 41.4835 -73.4332 246° West  Level FlightAware Approximate
Sat 05:02:00 PM 41.3715 -73.4822 163° South  Level Estimated
Sat 05:03:00 PM 41.3715 -73.4822 247° West  Level Estimated
Sat 05:04:00 PM 41.3715 -73.4822 159° South  Level Estimated
Sat 05:05:00 PM 41.3715 -73.4822 211° Southwest  Level Estimated
Sat 05:06:00 PM 41.3715 -73.4822 156° South  Level Estimated
Sat 05:07:00 PM 41.3715 -73.4822 188° South  Level Estimated
Sat 05:08:00 PM 41.3715 -73.4822 188° South  Level Estimated
Sat 05:09:00 PM 41.3715 -73.4822 211° Southwest  Level Estimated
Sat 05:10:00 PM 41.3715 -73.4822 196° South  Level Estimated
Sat 05:11:00 PM 41.3715 -73.4822 196° South  Level Estimated
Sat 05:12:00 PM 41.3715 -73.4822 217° Southwest  Level Estimated
Sat 05:13:00 PM 41.3715 -73.4822 21° North  Level Estimated
Sat 05:14:00 PM 41.3715 -73.4822 197° South  Level Estimated
Sat 05:15:00 PM 41.3715 -73.4822 197° South  Level Estimated
Sat 05:16:00 PM 41.3715 -73.4822 197° South  Level Estimated
Sat 05:17:00 PM 41.3715 -73.4822 21° North  Level Estimated
Sat 05:18:00 PM 41.3715 -73.4822 191° South  Level Estimated
Sat 05:19:00 PM 41.3715 -73.4822 191° South  Level Estimated
Sat 05:20:00 PM 41.3715 -73.4822 191° South  Level Estimated
Sat 05:21:00 PM 41.3715 -73.4822 21° North  Level Estimated
Sat 05:22:00 PM 41.3715 -73.4822 113° Southeast  Level Estimated
Sat 05:23:00 PM 41.3715 -73.4822 113° Southeast  Level Estimated
Sat 05:24:00 PM 41.3715 -73.4822 21° North  Level Estimated
Sat 05:25:00 PM 41.3715 -73.4822 21° North  Level Estimated
Sat 05:26:00 PM 41.3715 -73.4822 21° North  Level Estimated
Sat 05:27:00 PM 41.3715 -73.4822 21° North  Level Estimated
Sat 05:28:00 PM 41.3715 -73.4822 21° North  Level Estimated
Sat 05:29:00 PM 41.3715 -73.4822 21° North  Level Estimated
Sat 05:30:00 PM 41.3715 -73.4822 21° North  Level Estimated
Sat 05:31:00 PM 41.3715 -73.4822 21° North  Level Estimated
Sat 05:32:00 PM 41.3715 -73.4822 21° North  Level Estimated

Login

Don't have an account? Register now (free) for customized features, flight alerts, and more!